Time;durP1;ratioP1;P1;durP2;ratioP2;P2;SDS_P1;SDS_P2;PMS_P1;PMS_P2;Temp;Humidity;BMP_temperature;BMP_pressure;BME280_temperature;BME280_humidity;BME280_pressure;Samples;Min_cycle;Max_cycle;Signal;HPM_P1;HPM_P2
2022/01/30 00:02:02;;;;;;;;;;;7.60;99.90;;;;;;8384151;28;19960;-72
2022/01/30 00:06:04;;;;;;;;;;;7.50;99.90;;;;;;8371006;28;19932;-72
2022/01/30 00:10:10;;;;;;;;;;;7.50;99.90;;;;;;8388817;28;19925;-72
2022/01/30 00:14:14;;;;;;;;;;;7.50;99.90;;;;;;8387255;28;19975;-72
2022/01/30 00:18:40;;;;;;;;;;;7.50;99.90;;;;;;8388986;28;19928;-72
2022/01/30 00:22:56;;;;;;;;;;;7.40;99.90;;;;;;8390528;28;20291;-72
2022/01/30 00:26:58;;;;;;;;;;;7.40;99.90;;;;;;8386947;28;19975;-73
2022/01/30 00:31:00;;;;;;;;;;;7.40;99.90;;;;;;8374382;28;19971;-72
2022/01/30 00:35:02;;;;;;;;;;;7.40;99.90;;;;;;8388930;28;19925;-72
2022/01/30 00:39:03;;;;;;;;;;;7.30;99.90;;;;;;8384488;28;19983;-72
2022/01/30 00:43:05;;;;;;;;;;;7.30;99.90;;;;;;8388067;28;19935;-72
2022/01/30 00:47:12;;;;;;;;;;;7.30;99.90;;;;;;8389018;28;19982;-72
2022/01/30 00:51:17;;;;;;;;;;;7.30;99.90;;;;;;8403290;28;19925;-72
2022/01/30 00:55:19;;;;;;;;;;;7.30;99.90;;;;;;8385351;28;20317;-72
2022/01/30 00:59:20;;;;;;;;;;;7.30;99.90;;;;;;8388506;28;20078;-72
2022/01/30 01:03:22;;;;;;;;;;;7.20;99.90;;;;;;8382243;28;19972;-72
2022/01/30 01:07:24;;;;;;;;;;;7.20;99.90;;;;;;8387813;28;20000;-72
2022/01/30 01:24:15;;;;;;;;;;;7.10;99.90;;;;;;8379253;28;19979;-72
2022/01/30 01:28:16;;;;;;;;;;;7.10;99.90;;;;;;8382750;28;19929;-72
2022/01/30 01:32:18;;;;;;;;;;;7.10;99.90;;;;;;8375178;28;19995;-72
2022/01/30 01:36:21;;;;;;;;;;;7.00;99.90;;;;;;8365611;28;19928;-72
2022/01/30 01:40:22;;;;;;;;;;;7.00;99.90;;;;;;8397717;28;19951;-72
2022/01/30 01:44:41;;;;;;;;;;;7.00;99.90;;;;;;8389419;28;20020;-72
2022/01/30 01:48:45;;;;;;;;;;;7.00;99.90;;;;;;8391278;28;19970;-72
2022/01/30 01:52:46;;;;;;;;;;;7.00;99.90;;;;;;8376325;28;19925;-72
2022/01/30 01:56:48;;;;;;;;;;;7.00;99.90;;;;;;8386953;28;19979;-72
2022/01/30 02:00:49;;;;;;;;;;;7.00;99.90;;;;;;8392509;28;19931;-73
2022/01/30 02:04:51;;;;;;;;;;;7.00;99.90;;;;;;8388766;28;19924;-72
2022/01/30 02:09:00;;;;;;;;;;;7.00;99.90;;;;;;8374449;28;20299;-73
2022/01/30 02:13:39;;;;;;;;;;;7.00;99.90;;;;;;8377340;28;19931;-72
2022/01/30 02:26:45;;;;;;;;;;;6.90;99.90;;;;;;8295809;28;19924;-72
2022/01/30 02:30:57;;;;;;;;;;;6.90;99.90;;;;;;8394333;28;19967;-72
2022/01/30 02:34:59;;;;;;;;;;;6.90;99.90;;;;;;8396689;28;20367;-72
2022/01/30 02:39:00;;;;;;;;;;;6.90;99.90;;;;;;8392236;28;20022;-72
2022/01/30 02:43:03;;;;;;;;;;;6.80;99.90;;;;;;8392518;28;20343;-72
2022/01/30 02:47:05;;;;;;;;;;;6.80;99.90;;;;;;8397722;28;19935;-72
2022/01/30 02:51:11;;;;;;;;;;;6.80;99.90;;;;;;8391128;28;19928;-72
2022/01/30 02:55:13;;;;;;;;;;;6.70;99.90;;;;;;8393484;28;19932;-72
2022/01/30 02:59:15;;;;;;;;;;;6.80;99.90;;;;;;8390673;28;20480;-72
2022/01/30 03:03:17;;;;;;;;;;;6.80;99.90;;;;;;8390689;28;19928;-72
2022/01/30 03:07:19;;;;;;;;;;;6.80;99.90;;;;;;8392259;28;20257;-72
2022/01/30 03:11:20;;;;;;;;;;;6.80;99.90;;;;;;8391769;28;19924;-72
2022/01/30 03:15:22;;;;;;;;;;;6.70;99.90;;;;;;8391971;28;20398;-73
2022/01/30 03:19:23;;;;;;;;;;;6.70;99.90;;;;;;8391890;28;19975;-72
2022/01/30 03:23:25;;;;;;;;;;;6.60;99.90;;;;;;8376019;28;20023;-72
2022/01/30 03:27:29;;;;;;;;;;;6.60;99.90;;;;;;8392698;28;20000;-72
2022/01/30 03:31:30;;;;;;;;;;;6.50;99.90;;;;;;8387098;28;20329;-72
2022/01/30 03:35:32;;;;;;;;;;;6.50;99.90;;;;;;8387529;28;19972;-72
2022/01/30 03:39:33;;;;;;;;;;;6.50;99.90;;;;;;8391792;28;19972;-72
2022/01/30 03:43:35;;;;;;;;;;;6.40;99.90;;;;;;8330663;28;19968;-72
2022/01/30 03:47:37;;;;;;;;;;;6.40;99.90;;;;;;8324342;28;19932;-72
2022/01/30 03:51:38;;;;;;;;;;;6.40;99.90;;;;;;8330204;28;19956;-72
2022/01/30 03:55:40;;;;;;;;;;;6.40;99.90;;;;;;8319214;28;19925;-72
2022/01/30 03:59:41;;;;;;;;;;;6.30;99.90;;;;;;8318464;28;19925;-72
2022/01/30 04:03:43;;;;;;;;;;;6.30;99.90;;;;;;8319515;28;20019;-72
2022/01/30 04:07:45;;;;;;;;;;;6.30;99.90;;;;;;8307027;28;20389;-72
2022/01/30 04:11:47;;;;;;;;;;;6.20;99.90;;;;;;8312546;28;20028;-72
2022/01/30 04:15:48;;;;;;;;;;;6.20;99.90;;;;;;8317403;28;19992;-72
2022/01/30 04:19:50;;;;;;;;;;;6.20;99.90;;;;;;8327637;28;20327;-72
2022/01/30 04:23:52;;;;;;;;;;;6.20;99.90;;;;;;8306922;28;20352;-72
2022/01/30 04:27:53;;;;;;;;;;;6.20;99.90;;;;;;8309631;28;19932;-72
2022/01/30 04:31:55;;;;;;;;;;;6.20;99.90;;;;;;8310113;28;20453;-72
2022/01/30 04:36:00;;;;;;;;;;;6.20;99.90;;;;;;8318672;28;19929;-72
2022/01/30 04:54:11;;;;;;;;;;;6.30;99.90;;;;;;8349183;28;19967;-72
2022/01/30 04:57:42;;;;;;;;;;;6.30;99.90;;;;;;8384077;28;20026;-71
2022/01/30 05:01:59;;;;;;;;;;;6.30;99.90;;;;;;8387775;28;19928;-71
2022/01/30 05:06:08;;;;;;;;;;;6.30;99.90;;;;;;8388319;28;20455;-72
2022/01/30 05:10:09;;;;;;;;;;;6.20;99.90;;;;;;8376580;28;19975;-72
2022/01/30 05:14:13;;;;;;;;;;;6.20;99.90;;;;;;8387271;28;19925;-71
2022/01/30 05:18:19;;;;;;;;;;;6.10;99.90;;;;;;8367296;28;19968;-71
2022/01/30 05:22:21;;;;;;;;;;;6.10;99.90;;;;;;8393815;28;19931;-71
2022/01/30 05:26:24;;;;;;;;;;;6.10;99.90;;;;;;8391728;28;20034;-72
2022/01/30 05:30:26;;;;;;;;;;;6.10;99.90;;;;;;8394230;28;20027;-73
2022/01/30 05:34:28;;;;;;;;;;;6.10;99.90;;;;;;8390521;28;20361;-72
2022/01/30 05:38:30;;;;;;;;;;;6.00;99.90;;;;;;8386591;28;19983;-72
2022/01/30 05:42:32;;;;;;;;;;;6.00;99.90;;;;;;8395591;28;20023;-72
2022/01/30 05:46:43;;;;;;;;;;;6.00;99.90;;;;;;8374291;28;19935;-72
2022/01/30 05:50:45;;;;;;;;;;;6.00;99.90;;;;;;8390291;28;19975;-72
2022/01/30 05:54:47;;;;;;;;;;;5.90;99.90;;;;;;8376919;28;19971;-72
2022/01/30 05:58:49;;;;;;;;;;;5.90;99.90;;;;;;8395261;28;20470;-72
2022/01/30 06:02:50;;;;;;;;;;;5.90;99.90;;;;;;8369850;28;19968;-72
2022/01/30 06:06:54;;;;;;;;;;;5.90;99.90;;;;;;8389465;28;19925;-72
2022/01/30 06:10:55;;;;;;;;;;;5.90;99.90;;;;;;8390234;28;19932;-72
2022/01/30 06:14:58;;;;;;;;;;;5.90;99.90;;;;;;8389025;28;19932;-72
2022/01/30 06:18:59;;;;;;;;;;;5.90;99.90;;;;;;8394607;28;20014;-72
2022/01/30 06:23:01;;;;;;;;;;;5.90;99.90;;;;;;8393106;28;19967;-72
2022/01/30 06:27:03;;;;;;;;;;;5.90;99.90;;;;;;8387460;28;19960;-73
2022/01/30 06:31:04;;;;;;;;;;;5.80;99.90;;;;;;8359823;28;20028;-72
2022/01/30 06:35:06;;;;;;;;;;;5.80;99.90;;;;;;8389776;28;19948;-72
2022/01/30 06:39:07;;;;;;;;;;;5.80;99.90;;;;;;8387317;28;19928;-72
2022/01/30 06:43:09;;;;;;;;;;;5.80;99.90;;;;;;8387645;28;19975;-72
2022/01/30 06:47:11;;;;;;;;;;;5.80;99.90;;;;;;8388497;28;20284;-72
2022/01/30 06:51:13;;;;;;;;;;;5.70;99.90;;;;;;8389820;28;19974;-72
2022/01/30 06:55:14;;;;;;;;;;;5.70;99.90;;;;;;8392623;28;19972;-73
2022/01/30 06:59:16;;;;;;;;;;;5.70;99.90;;;;;;8389178;28;19967;-72
2022/01/30 07:03:18;;;;;;;;;;;5.60;99.90;;;;;;8382743;28;20307;-72
2022/01/30 07:07:19;;;;;;;;;;;5.50;99.90;;;;;;8365483;28;20330;-72
2022/01/30 07:11:21;;;;;;;;;;;5.40;99.90;;;;;;8386906;28;20010;-72
2022/01/30 07:15:22;;;;;;;;;;;5.40;99.90;;;;;;8375592;28;19967;-72
2022/01/30 07:19:24;;;;;;;;;;;5.30;99.90;;;;;;8353000;28;20003;-73
2022/01/30 07:23:26;;;;;;;;;;;5.30;99.90;;;;;;8364401;28;19976;-72
2022/01/30 07:27:31;;;;;;;;;;;5.30;99.90;;;;;;8373148;28;19928;-72
2022/01/30 07:31:33;;;;;;;;;;;5.20;99.90;;;;;;8384157;28;19943;-72
2022/01/30 07:35:37;;;;;;;;;;;5.20;99.90;;;;;;8384438;28;19971;-73
2022/01/30 07:39:39;;;;;;;;;;;5.10;99.90;;;;;;8381917;28;20075;-72
2022/01/30 07:43:41;;;;;;;;;;;5.20;99.90;;;;;;8382300;28;19967;-73
2022/01/30 07:47:43;;;;;;;;;;;5.10;99.90;;;;;;8381805;28;19939;-72
2022/01/30 07:51:44;;;;;;;;;;;5.20;99.90;;;;;;8385114;28;20479;-72
2022/01/30 07:55:46;;;;;;;;;;;5.20;99.90;;;;;;8388490;28;20019;-72
2022/01/30 07:59:48;;;;;;;;;;;5.20;99.90;;;;;;8386163;28;19960;-72
2022/01/30 08:03:49;;;;;;;;;;;5.20;99.90;;;;;;8383298;28;20051;-72
2022/01/30 08:07:51;;;;;;;;;;;5.20;99.90;;;;;;8386152;28;19928;-72
2022/01/30 08:11:53;;;;;;;;;;;5.30;99.90;;;;;;8385401;28;19983;-72
2022/01/30 08:15:54;;;;;;;;;;;5.30;99.90;;;;;;8386176;28;20360;-72
2022/01/30 08:19:57;;;;;;;;;;;5.30;99.90;;;;;;8385401;28;19991;-72
2022/01/30 08:23:59;;;;;;;;;;;5.30;99.90;;;;;;8386276;28;20404;-72
2022/01/30 08:28:01;;;;;;;;;;;5.40;99.90;;;;;;8365493;28;20007;-72
2022/01/30 08:32:04;;;;;;;;;;;5.50;99.90;;;;;;8382602;28;20256;-72
2022/01/30 08:36:06;;;;;;;;;;;5.60;99.90;;;;;;8387210;28;19960;-72
2022/01/30 08:40:09;;;;;;;;;;;5.70;99.90;;;;;;8383557;28;19975;-72
2022/01/30 08:44:11;;;;;;;;;;;5.80;99.90;;;;;;8380792;28;19932;-72
2022/01/30 08:48:12;;;;;;;;;;;5.90;99.90;;;;;;8380999;28;19928;-72
2022/01/30 08:52:16;;;;;;;;;;;5.90;99.90;;;;;;8382018;28;19967;-72
2022/01/30 08:56:18;;;;;;;;;;;6.00;99.90;;;;;;8386504;28;20051;-72
2022/01/30 09:00:20;;;;;;;;;;;6.10;99.90;;;;;;8389215;28;19975;-72
2022/01/30 09:04:21;;;;;;;;;;;6.10;99.90;;;;;;8386426;28;20229;-72
2022/01/30 09:08:23;;;;;;;;;;;6.20;99.90;;;;;;8387019;28;20020;-72
2022/01/30 09:12:25;;;;;;;;;;;6.40;99.90;;;;;;8374399;28;20379;-73
2022/01/30 09:16:26;;;;;;;;;;;6.50;99.90;;;;;;8382883;28;20011;-73
2022/01/30 09:20:28;;;;;;;;;;;6.60;99.90;;;;;;8388641;28;20276;-73
2022/01/30 09:24:29;;;;;;;;;;;6.70;99.90;;;;;;8369597;28;20386;-73
2022/01/30 09:28:31;;;;;;;;;;;6.90;99.90;;;;;;8385961;28;19943;-73
2022/01/30 09:32:33;;;;;;;;;;;7.10;99.90;;;;;;8386974;28;19958;-73
2022/01/30 09:36:35;;;;;;;;;;;7.40;99.90;;;;;;8385347;28;19924;-73
2022/01/30 09:40:36;;;;;;;;;;;7.60;99.90;;;;;;8373831;28;20019;-74
2022/01/30 09:44:39;;;;;;;;;;;7.80;99.90;;;;;;8386149;28;20395;-73
2022/01/30 09:48:41;;;;;;;;;;;8.10;99.90;;;;;;8383057;28;19932;-73
2022/01/30 09:52:43;;;;;;;;;;;8.30;99.90;;;;;;8365026;28;20547;-73
2022/01/30 09:56:44;;;;;;;;;;;8.50;99.90;;;;;;8389305;28;19976;-73
2022/01/30 10:00:46;;;;;;;;;;;8.60;99.90;;;;;;8385830;28;19990;-73
2022/01/30 10:04:47;;;;;;;;;;;8.70;99.90;;;;;;8365846;28;20020;-73
2022/01/30 10:08:54;;;;;;;;;;;8.80;99.90;;;;;;8370349;28;20287;-73
2022/01/30 10:13:06;;;;;;;;;;;8.80;99.90;;;;;;8386199;28;19994;-73
2022/01/30 10:17:08;;;;;;;;;;;8.90;99.90;;;;;;8387291;28;19964;-73
2022/01/30 10:21:20;;;;;;;;;;;9.10;99.90;;;;;;8387529;28;19925;-73
2022/01/30 10:25:35;;;;;;;;;;;9.40;99.90;;;;;;8390693;28;19931;-73
2022/01/30 10:29:36;;;;;;;;;;;9.70;99.90;;;;;;8386766;28;20399;-73
2022/01/30 10:33:45;;;;;;;;;;;10.00;99.90;;;;;;8376674;28;19932;-73
2022/01/30 10:37:47;;;;;;;;;;;10.30;99.90;;;;;;8371920;28;19936;-73
2022/01/30 10:41:54;;;;;;;;;;;10.40;99.90;;;;;;8389085;28;20376;-73
2022/01/30 10:45:56;;;;;;;;;;;10.10;99.90;;;;;;8388913;28;20007;-72
2022/01/30 10:49:58;;;;;;;;;;;9.60;99.90;;;;;;8397076;28;20280;-73
2022/01/30 10:54:05;;;;;;;;;;;9.40;99.90;;;;;;8389268;28;21299;-73
2022/01/30 10:58:09;;;;;;;;;;;9.60;99.90;;;;;;8389532;28;20386;-73
2022/01/30 11:02:12;;;;;;;;;;;9.90;99.90;;;;;;8384310;28;20392;-73
2022/01/30 11:06:15;;;;;;;;;;;9.80;99.90;;;;;;8390679;28;19925;-73
2022/01/30 11:10:23;;;;;;;;;;;9.60;99.90;;;;;;8387321;28;20000;-73
2022/01/30 11:14:36;;;;;;;;;;;10.00;99.90;;;;;;8386688;28;20348;-74
2022/01/30 11:18:37;;;;;;;;;;;10.90;99.90;;;;;;8363901;28;20015;-73
2022/01/30 11:22:41;;;;;;;;;;;11.70;99.90;;;;;;8389021;28;19933;-73
2022/01/30 11:26:43;;;;;;;;;;;11.90;99.90;;;;;;8388782;28;20356;-73
2022/01/30 11:30:46;;;;;;;;;;;11.80;99.90;;;;;;8388451;28;19924;-73
2022/01/30 11:34:47;;;;;;;;;;;11.40;99.90;;;;;;8386120;28;19936;-73
2022/01/30 11:38:49;;;;;;;;;;;11.00;99.90;;;;;;8389002;28;20396;-73
2022/01/30 11:42:51;;;;;;;;;;;10.80;99.90;;;;;;8385946;28;20423;-73
2022/01/30 11:46:56;;;;;;;;;;;11.10;99.90;;;;;;8390727;28;19925;-73
2022/01/30 11:51:01;;;;;;;;;;;11.30;99.90;;;;;;8368612;28;19939;-73
2022/01/30 11:55:03;;;;;;;;;;;11.30;99.90;;;;;;8380480;28;20403;-73
2022/01/30 11:59:06;;;;;;;;;;;11.10;99.90;;;;;;8365074;28;19960;-73
2022/01/30 12:03:20;;;;;;;;;;;11.10;99.90;;;;;;8378578;28;20019;-73
2022/01/30 12:07:37;;;;;;;;;;;11.60;99.90;;;;;;8382129;28;19935;-73
2022/01/30 12:11:43;;;;;;;;;;;11.90;99.90;;;;;;8380612;28;20368;-73
2022/01/30 12:15:46;;;;;;;;;;;12.00;99.90;;;;;;8383342;28;19982;-73
2022/01/30 12:19:47;;;;;;;;;;;12.40;99.90;;;;;;8368830;28;20393;-73
2022/01/30 12:23:49;;;;;;;;;;;12.30;99.90;;;;;;8370594;28;19971;-73
2022/01/30 12:27:51;;;;;;;;;;;11.70;99.90;;;;;;8384465;28;20077;-73
2022/01/30 12:31:53;;;;;;;;;;;11.20;99.90;;;;;;8356978;28;20015;-74
2022/01/30 12:35:54;;;;;;;;;;;11.50;99.90;;;;;;8361337;28;20022;-73
2022/01/30 12:39:57;;;;;;;;;;;12.10;99.90;;;;;;8361349;28;20026;-72
2022/01/30 12:44:00;;;;;;;;;;;13.00;99.90;;;;;;8379636;28;20389;-73
2022/01/30 12:48:07;;;;;;;;;;;13.70;99.90;;;;;;8377082;28;19928;-73
2022/01/30 12:52:20;;;;;;;;;;;13.30;99.90;;;;;;8375945;28;20022;-73
2022/01/30 12:56:22;;;;;;;;;;;12.40;99.90;;;;;;8382527;28;19925;-73
2022/01/30 13:00:24;;;;;;;;;;;11.70;99.90;;;;;;8375752;28;20202;-73
2022/01/30 13:04:28;;;;;;;;;;;11.60;99.90;;;;;;8380298;28;19975;-73
2022/01/30 13:08:51;;;;;;;;;;;12.20;99.90;;;;;;8381322;28;20609;-73
2022/01/30 13:12:54;;;;;;;;;;;12.60;99.90;;;;;;8380357;28;20007;-73
2022/01/30 13:16:59;;;;;;;;;;;13.10;99.90;;;;;;8362540;28;19928;-73
2022/01/30 13:21:04;;;;;;;;;;;13.50;99.90;;;;;;8377824;28;20403;-73
2022/01/30 13:25:24;;;;;;;;;;;13.60;99.90;;;;;;8380555;28;20020;-73
2022/01/30 13:29:31;;;;;;;;;;;13.30;99.90;;;;;;8378112;28;19932;-73
2022/01/30 13:33:32;;;;;;;;;;;12.80;99.90;;;;;;8358158;28;20062;-73
2022/01/30 13:37:37;;;;;;;;;;;12.50;99.90;;;;;;8378010;28;20021;-73
2022/01/30 13:41:50;;;;;;;;;;;12.20;99.90;;;;;;8373933;28;19940;-73
2022/01/30 13:49:54;;;;;;;;;;;11.60;99.90;;;;;;8388072;28;19924;-73
2022/01/30 13:54:05;;;;;;;;;;;11.20;99.90;;;;;;8388633;28;20319;-74
2022/01/30 13:58:08;;;;;;;;;;;10.80;99.90;;;;;;8391024;28;19948;-74
2022/01/30 14:02:09;;;;;;;;;;;10.60;99.90;;;;;;8397600;28;20031;-73
2022/01/30 14:06:24;;;;;;;;;;;10.60;99.90;;;;;;8388507;28;19925;-74
2022/01/30 14:10:32;;;;;;;;;;;10.80;99.90;;;;;;8386451;28;19968;-73
2022/01/30 14:14:37;;;;;;;;;;;10.90;99.90;;;;;;8388591;28;20010;-74
2022/01/30 14:18:45;;;;;;;;;;;10.60;99.90;;;;;;8370522;28;19960;-73
2022/01/30 14:23:02;;;;;;;;;;;10.50;99.90;;;;;;8391205;28;20383;-73
2022/01/30 14:27:05;;;;;;;;;;;10.30;99.90;;;;;;8373464;28;19975;-73
2022/01/30 14:31:16;;;;;;;;;;;10.30;99.90;;;;;;8370914;28;19951;-73
2022/01/30 14:35:17;;;;;;;;;;;10.30;99.90;;;;;;8388135;28;19924;-73
2022/01/30 14:39:19;;;;;;;;;;;10.30;99.90;;;;;;8377456;28;19928;-73
2022/01/30 14:43:21;;;;;;;;;;;10.40;99.90;;;;;;8399861;28;19983;-73
2022/01/30 14:47:23;;;;;;;;;;;10.50;99.90;;;;;;8388985;28;20029;-74
2022/01/30 14:51:25;;;;;;;;;;;10.70;99.90;;;;;;8372845;28;20407;-73
2022/01/30 14:55:26;;;;;;;;;;;11.10;99.90;;;;;;8388736;28;20295;-73
2022/01/30 14:59:28;;;;;;;;;;;11.70;99.90;;;;;;8386737;28;19964;-73
2022/01/30 15:03:32;;;;;;;;;;;12.10;99.90;;;;;;8382505;28;19956;-73
2022/01/30 15:07:35;;;;;;;;;;;12.10;99.90;;;;;;8394065;28;20549;-73
2022/01/30 15:11:36;;;;;;;;;;;12.00;99.90;;;;;;8371048;28;20544;-73
2022/01/30 15:15:39;;;;;;;;;;;11.60;99.90;;;;;;8388008;28;20364;-73
2022/01/30 15:19:41;;;;;;;;;;;11.40;99.90;;;;;;8372829;28;19924;-74
2022/01/30 15:23:42;;;;;;;;;;;11.20;99.90;;;;;;8386496;28;19963;-75
2022/01/30 15:27:44;;;;;;;;;;;10.90;99.90;;;;;;8389640;28;20034;-73
2022/01/30 15:31:45;;;;;;;;;;;10.60;99.90;;;;;;8388688;28;20315;-72
2022/01/30 15:35:49;;;;;;;;;;;10.40;99.90;;;;;;8390322;28;19936;-73
2022/01/30 15:39:50;;;;;;;;;;;10.20;99.90;;;;;;8360723;28;20475;-73
2022/01/30 15:43:54;;;;;;;;;;;10.10;99.90;;;;;;8384094;28;20410;-73
2022/01/30 15:52:16;;;;;;;;;;;9.80;99.90;;;;;;8386376;28;20015;-73
2022/01/30 15:56:18;;;;;;;;;;;9.60;99.90;;;;;;8372139;28;19968;-73
2022/01/30 16:00:20;;;;;;;;;;;9.50;99.90;;;;;;8365829;28;19933;-73
2022/01/30 16:04:22;;;;;;;;;;;9.40;99.90;;;;;;8359933;28;20293;-73
2022/01/30 16:08:23;;;;;;;;;;;9.10;99.90;;;;;;8371520;28;19932;-73
2022/01/30 16:16:36;;;;;;;;;;;8.80;99.90;;;;;;8358588;28;20355;-73
2022/01/30 16:20:39;;;;;;;;;;;8.60;99.90;;;;;;8359276;28;19931;-73
2022/01/30 16:24:41;;;;;;;;;;;8.50;99.90;;;;;;8361163;28;20034;-73
2022/01/30 16:28:42;;;;;;;;;;;8.40;99.90;;;;;;8358803;28;19932;-73
2022/01/30 16:32:44;;;;;;;;;;;8.30;99.90;;;;;;8362509;28;19975;-73
2022/01/30 16:36:45;;;;;;;;;;;8.20;99.90;;;;;;8339132;28;20435;-73
2022/01/30 16:40:47;;;;;;;;;;;8.10;99.90;;;;;;8356677;28;20380;-73
2022/01/30 16:44:49;;;;;;;;;;;7.90;99.90;;;;;;8353933;28;19932;-73
2022/01/30 16:48:51;;;;;;;;;;;7.80;99.90;;;;;;8361092;28;20055;-73
2022/01/30 16:52:52;;;;;;;;;;;7.70;99.90;;;;;;8357662;28;20024;-73
2022/01/30 16:56:54;;;;;;;;;;;7.60;99.90;;;;;;8356575;28;19928;-73
2022/01/30 17:00:55;;;;;;;;;;;7.50;99.90;;;;;;8358451;28;19931;-73
2022/01/30 17:04:57;;;;;;;;;;;7.40;99.90;;;;;;8354348;28;19991;-73
2022/01/30 17:09:12;;;;;;;;;;;7.30;99.90;;;;;;8357388;28;19932;-73
2022/01/30 17:13:13;;;;;;;;;;;7.20;99.90;;;;;;8355859;28;19940;-73
2022/01/30 17:17:16;;;;;;;;;;;7.10;99.90;;;;;;8361878;28;19959;-73
2022/01/30 17:21:18;;;;;;;;;;;7.10;99.90;;;;;;8363700;28;20023;-73
2022/01/30 17:25:19;;;;;;;;;;;7.10;99.90;;;;;;8353213;28;21911;-73
2022/01/30 17:29:21;;;;;;;;;;;7.00;99.90;;;;;;8365050;28;19964;-73
2022/01/30 17:33:24;;;;;;;;;;;6.90;99.90;;;;;;8347660;28;19981;-73
2022/01/30 17:37:26;;;;;;;;;;;6.90;99.90;;;;;;8363287;28;19928;-73
2022/01/30 17:41:30;;;;;;;;;;;6.80;99.90;;;;;;8347850;28;19928;-73
2022/01/30 17:45:32;;;;;;;;;;;6.80;99.90;;;;;;8370518;28;20368;-73
2022/01/30 17:49:33;;;;;;;;;;;6.80;99.90;;;;;;8376865;28;19924;-72
2022/01/30 17:53:36;;;;;;;;;;;6.70;99.90;;;;;;8364127;28;20019;-73
2022/01/30 17:57:38;;;;;;;;;;;6.60;99.90;;;;;;8377304;28;20372;-73
2022/01/30 18:01:39;;;;;;;;;;;6.60;99.90;;;;;;8364081;28;19928;-72
2022/01/30 18:05:41;;;;;;;;;;;6.60;99.90;;;;;;8358826;28;19925;-73
2022/01/30 18:09:43;;;;;;;;;;;6.60;99.90;;;;;;8380463;28;20292;-73
2022/01/30 18:13:44;;;;;;;;;;;6.60;99.90;;;;;;8361808;28;20011;-73
2022/01/30 18:17:46;;;;;;;;;;;6.50;99.90;;;;;;8343523;28;19939;-73
2022/01/30 18:21:47;;;;;;;;;;;6.50;99.90;;;;;;8363233;28;20028;-72
2022/01/30 18:25:49;;;;;;;;;;;6.40;99.90;;;;;;8350480;28;19974;-73
2022/01/30 18:29:52;;;;;;;;;;;6.30;99.90;;;;;;8359321;28;20270;-73
2022/01/30 18:33:53;;;;;;;;;;;6.30;99.90;;;;;;8364965;28;19933;-73
2022/01/30 18:37:58;;;;;;;;;;;6.20;99.90;;;;;;8363126;28;20419;-73
2022/01/30 18:42:00;;;;;;;;;;;6.10;99.90;;;;;;8351558;28;19932;-73
2022/01/30 18:46:02;;;;;;;;;;;6.00;99.90;;;;;;8361480;28;19928;-72
2022/01/30 18:50:04;;;;;;;;;;;5.90;99.90;;;;;;8345176;28;20383;-73
2022/01/30 18:54:06;;;;;;;;;;;5.90;99.90;;;;;;8343183;28;19978;-72
2022/01/30 18:58:08;;;;;;;;;;;5.90;99.90;;;;;;8362730;28;20015;-73
2022/01/30 19:02:09;;;;;;;;;;;5.80;99.90;;;;;;8358918;28;20409;-72
2022/01/30 19:06:14;;;;;;;;;;;5.80;99.90;;;;;;8358603;28;19964;-73
2022/01/30 19:10:15;;;;;;;;;;;5.70;99.90;;;;;;8360860;28;19967;-72
2022/01/30 19:14:17;;;;;;;;;;;5.60;99.90;;;;;;8360668;28;20055;-73
2022/01/30 19:18:18;;;;;;;;;;;5.60;99.90;;;;;;8359262;28;20011;-73
2022/01/30 19:22:20;;;;;;;;;;;5.60;99.90;;;;;;8348818;28;19932;-73
2022/01/30 19:26:23;;;;;;;;;;;5.50;99.90;;;;;;8360555;28;19925;-73
2022/01/30 19:30:24;;;;;;;;;;;5.50;99.90;;;;;;8359773;28;20020;-72
2022/01/30 19:34:26;;;;;;;;;;;5.50;99.90;;;;;;8359174;28;20396;-73
2022/01/30 19:38:29;;;;;;;;;;;5.50;99.90;;;;;;8359580;28;19936;-72
2022/01/30 19:42:35;;;;;;;;;;;5.40;99.90;;;;;;8362905;28;20047;-73
2022/01/30 19:46:37;;;;;;;;;;;5.40;99.90;;;;;;8356498;28;19925;-73
2022/01/30 19:50:39;;;;;;;;;;;5.30;99.90;;;;;;8339759;28;19933;-73
2022/01/30 19:54:40;;;;;;;;;;;5.30;99.90;;;;;;8355835;28;20212;-73
2022/01/30 19:58:42;;;;;;;;;;;5.30;99.90;;;;;;8342332;28;20459;-72
2022/01/30 20:02:44;;;;;;;;;;;5.30;99.90;;;;;;8336728;28;19931;-72
2022/01/30 20:06:46;;;;;;;;;;;5.30;99.90;;;;;;8357389;28;19925;-72
2022/01/30 20:10:47;;;;;;;;;;;5.30;99.90;;;;;;8356429;28;19928;-73
2022/01/30 20:14:49;;;;;;;;;;;5.30;99.90;;;;;;8338830;28;19968;-72
2022/01/30 20:18:51;;;;;;;;;;;5.30;99.90;;;;;;8355656;28;20403;-72
2022/01/30 20:22:53;;;;;;;;;;;5.30;99.90;;;;;;8368961;28;20394;-72
2022/01/30 20:26:55;;;;;;;;;;;5.30;99.90;;;;;;8353418;28;19933;-73
2022/01/30 20:31:00;;;;;;;;;;;5.30;99.90;;;;;;8341189;28;19940;-72
2022/01/30 20:35:02;;;;;;;;;;;5.30;99.90;;;;;;8357249;28;20035;-72
2022/01/30 20:39:04;;;;;;;;;;;5.30;99.90;;;;;;8357470;28;20023;-72
2022/01/30 20:43:06;;;;;;;;;;;5.30;99.90;;;;;;8341398;28;19964;-73
2022/01/30 20:47:08;;;;;;;;;;;5.30;99.90;;;;;;8354119;28;20015;-72
2022/01/30 20:51:10;;;;;;;;;;;5.30;99.90;;;;;;8361194;28;20075;-73
2022/01/30 20:55:12;;;;;;;;;;;5.20;99.90;;;;;;8367617;28;19939;-73
2022/01/30 20:59:14;;;;;;;;;;;5.20;99.90;;;;;;8369414;28;19932;-72
2022/01/30 21:03:15;;;;;;;;;;;5.20;99.90;;;;;;8367260;28;19928;-72
2022/01/30 21:07:18;;;;;;;;;;;5.20;99.90;;;;;;8370175;28;19928;-72
2022/01/30 21:11:21;;;;;;;;;;;5.20;99.90;;;;;;8379866;28;20351;-72
2022/01/30 21:15:24;;;;;;;;;;;5.20;99.90;;;;;;8376767;28;19928;-73
2022/01/30 21:19:30;;;;;;;;;;;5.10;99.90;;;;;;8372303;28;20296;-73
2022/01/30 21:23:33;;;;;;;;;;;5.10;99.90;;;;;;8364888;28;20039;-73
2022/01/30 21:27:35;;;;;;;;;;;5.10;99.90;;;;;;8366557;28;20031;-73
2022/01/30 21:31:36;;;;;;;;;;;5.10;99.90;;;;;;8364840;28;19972;-72
2022/01/30 21:35:38;;;;;;;;;;;5.00;99.90;;;;;;8367166;28;19982;-73
2022/01/30 21:39:40;;;;;;;;;;;5.00;99.90;;;;;;8366894;28;19932;-72
2022/01/30 21:43:42;;;;;;;;;;;5.00;99.90;;;;;;8365462;28;20850;-73
2022/01/30 21:47:43;;;;;;;;;;;5.00;99.90;;;;;;8367420;28;19924;-72
2022/01/30 21:51:45;;;;;;;;;;;5.00;99.90;;;;;;8366160;28;19972;-73
2022/01/30 21:55:47;;;;;;;;;;;5.00;99.90;;;;;;8349190;28;20039;-72
2022/01/30 21:59:48;;;;;;;;;;;5.00;99.90;;;;;;8360707;28;20299;-73
2022/01/30 22:03:50;;;;;;;;;;;4.90;99.90;;;;;;8377555;28;19924;-72
2022/01/30 22:07:52;;;;;;;;;;;5.00;99.90;;;;;;8384615;28;20019;-72
2022/01/30 22:11:54;;;;;;;;;;;5.00;99.90;;;;;;8373281;28;20015;-72
2022/01/30 22:15:56;;;;;;;;;;;5.00;99.90;;;;;;8378570;28;20406;-73
2022/01/30 22:19:58;;;;;;;;;;;5.00;99.90;;;;;;8380074;28;19947;-72
2022/01/30 22:23:59;;;;;;;;;;;5.00;99.90;;;;;;8393622;28;20055;-72
2022/01/30 22:28:01;;;;;;;;;;;5.00;99.90;;;;;;8367522;28;20027;-72
2022/01/30 22:32:03;;;;;;;;;;;4.90;99.90;;;;;;8365019;28;20337;-73
2022/01/30 22:36:05;;;;;;;;;;;4.90;99.90;;;;;;8367044;28;19925;-73
2022/01/30 22:40:07;;;;;;;;;;;4.90;99.90;;;;;;8369698;28;21606;-72
2022/01/30 22:44:09;;;;;;;;;;;4.90;99.90;;;;;;8383408;28;19976;-72
2022/01/30 22:48:11;;;;;;;;;;;4.90;99.90;;;;;;8374815;28;19928;-72
2022/01/30 22:52:12;;;;;;;;;;;4.90;99.90;;;;;;8382085;28;20438;-73
2022/01/30 22:56:14;;;;;;;;;;;4.90;99.90;;;;;;8384009;28;19955;-73
2022/01/30 23:00:23;;;;;;;;;;;4.80;99.90;;;;;;8364920;28;20027;-72
2022/01/30 23:04:25;;;;;;;;;;;4.70;99.90;;;;;;8385101;28;19967;-72
2022/01/30 23:08:26;;;;;;;;;;;4.70;99.90;;;;;;8380240;28;20382;-73
2022/01/30 23:12:28;;;;;;;;;;;4.70;99.90;;;;;;8381175;28;19964;-72
2022/01/30 23:16:29;;;;;;;;;;;4.80;99.90;;;;;;8357463;28;19925;-73
2022/01/30 23:20:31;;;;;;;;;;;4.80;99.90;;;;;;8387786;28;19932;-72
2022/01/30 23:24:33;;;;;;;;;;;4.80;99.90;;;;;;8374128;28;20055;-73
2022/01/30 23:28:36;;;;;;;;;;;4.90;99.90;;;;;;8382498;28;19956;-73
2022/01/30 23:32:37;;;;;;;;;;;4.90;99.90;;;;;;8381173;28;19924;-73
2022/01/30 23:36:39;;;;;;;;;;;4.90;99.90;;;;;;8384465;28;20341;-72
2022/01/30 23:40:49;;;;;;;;;;;4.90;99.90;;;;;;8384619;28;20015;-72
2022/01/30 23:44:51;;;;;;;;;;;4.90;99.90;;;;;;8380567;28;19925;-72
2022/01/30 23:48:52;;;;;;;;;;;4.90;99.90;;;;;;8381244;28;19964;-72
2022/01/30 23:52:54;;;;;;;;;;;4.90;99.90;;;;;;8379995;28;19924;-73
2022/01/30 23:56:59;;;;;;;;;;;4.90;99.90;;;;;;8382575;28;20023;-73
